CheckWX is a tool to help pilots better visualize weather data.  It is not intended as a substitute for an official pre-flight weather briefing.

02:27:42 UTC

KSUZ METAR
Saline County Regional Airport
Benton, Arkansas, USA
Current

13 mins ago

KSUZ 200215Z AUTO 18004KT 10SM FEW048 29/26 A2999 RMK A01
Observed
Aug-20 @ 02:15 UTC
Wind
  • 180° at 4 KTS
Visibility
10 SM
Flight Rules
VFR
Cloud Levels
  • Few at 4,800' AGL
Temperature
29°C / 84°F
Dewpoint
26°C / 79°F
Heat Index
36°C / 96°F
Humidity
84%
Altimeter
29.99" Hg
Pressure
1015.62 hPa
Previous

33 mins ago

KSUZ 200155Z AUTO 00000KT 10SM FEW049 29/25 A2998 RMK A01
Observed
Aug-20 @ 01:55 UTC
Visibility
10 SM
Flight Rules
VFR
Cloud Levels
  • Few at 4,900' AGL
Temperature
29°C / 84°F
Dewpoint
25°C / 77°F
Heat Index
34°C / 94°F
Humidity
79%
Altimeter
29.98" Hg
Pressure
1015.22 hPa
Previous

53 mins ago

KSUZ 200135Z AUTO 00000KT 10SM FEW049 29/25 A2998 RMK A01
Observed
Aug-20 @ 01:35 UTC
Visibility
10 SM
Flight Rules
VFR
Cloud Levels
  • Few at 4,900' AGL
Temperature
29°C / 84°F
Dewpoint
25°C / 77°F
Heat Index
34°C / 94°F
Humidity
79%
Altimeter
29.98" Hg
Pressure
1015.22 hPa